Volga-4011 — UBNJ — position and weather

sailwx.info

Track history (hours):
 
Tides and Currents Weather Stations Pressure Air Temp Water Temp Dewpoint Dewpoint Depression Visibility Wind Speed Wind Dir Waves Ship Positions

Volga-4011

Last reported at 2016-May-24 14:26 UTC. Time now 2016-May-31 23:44 UTC.
Position N 31°06' E 121°59'.

Length 140 m; draft 3.6 m.

Type: Cargo ship. MMSI: 273358200.

Date/timePositionNaut miles runAvg speedWind from/ knotsBaromVisibWave heightAir tempDewpointWater temp
2016-May-24 14:26N 31°06' E 121°59'7 7.5
2016-May-24 13:31N 31°09' E 121°53'2311.4
2016-May-24 11:29N 31°24' E 121°32'910.1
2016-May-24 10:33N 31°31' E 121°24'9 8.6
2016-May-24 09:33N 31°36' E 121°17'8 8.2
2016-May-24 08:33N 31°42' E 121°09'0 0.3
2016-May-24 07:32N 31°42' E 121°09'0 0.0
2016-May-24 06:30N 31°42' E 121°09'0 0.0
2016-May-24 05:30N 31°42' E 121°09'0 0.0
2016-May-24 04:31N 31°42' E 121°09'0 0.0
2016-May-24 03:32N 31°42' E 121°09'0 0.0
2016-May-24 02:32N 31°42' E 121°09'0 0.0
2016-May-24 01:33N 31°42' E 121°09'0 0.0
2016-May-24 00:31N 31°42' E 121°09'0 0.0
2016-May-23 23:28N 31°42' E 121°09'0 0.0
2016-May-23 22:32N 31°42' E 121°09'0 0.1
2016-May-23 21:33N 31°42' E 121°09'0 0.0
2016-May-23 20:24N 31°42' E 121°09'0 0.0
2016-May-23 19:31N 31°42' E 121°09'0 0.0
2016-May-23 18:26N 31°42' E 121°09'0 0.0
2016-May-23 17:26N 31°42' E 121°09'0 0.0
2016-May-23 16:33N 31°42' E 121°09'0 0.0
2016-May-23 15:33N 31°42' E 121°09'0 0.0
2016-May-23 14:28N 31°42' E 121°09'0 0.0
2016-May-23 13:20N 31°42' E 121°09'0 0.1
2016-May-23 12:33N 31°42' E 121°09'0 0.1
2016-May-23 11:33N 31°42' E 121°09'5 4.8
2016-May-23 10:33N 31°39' E 121°14'1 1.0
2016-May-23 09:31N 31°39' E 121°15'0 0.1
2016-May-23 08:32N 31°39' E 121°15'0 0.1
2016-May-23 07:32N 31°39' E 121°15'0 0.2
2016-May-23 06:33N 31°39' E 121°15'0 0.1
2016-May-23 05:31N 31°39' E 121°15'0 0.1
2016-May-23 04:31N 31°39' E 121°15'0 0.1
2016-May-23 03:29N 31°39' E 121°15'0 0.0
2016-May-23 02:29N 31°39' E 121°15'0 0.0
2016-May-23 01:32N 31°39' E 121°15'0 0.0
2016-May-23 00:30N 31°39' E 121°15'0 0.0
2016-May-22 23:31N 31°39' E 121°15'0 0.0
2016-May-22 22:31N 31°39' E 121°15'0 0.0
2016-May-22 21:32N 31°39' E 121°15'0 0.1
2016-May-22 20:32N 31°39' E 121°15'0 0.1
2016-May-22 19:31N 31°39' E 121°15'0 0.1
2016-May-22 18:31N 31°39' E 121°15'0 0.0
2016-May-22 17:31N 31°39' E 121°15'0 0.0
2016-May-22 16:32N 31°39' E 121°15'0 0.1
2016-May-22 15:30N 31°39' E 121°15'0 0.2
2016-May-22 14:30N 31°39' E 121°15'0 0.0
2016-May-22 13:31N 31°39' E 121°15'0 0.0
2016-May-22 12:32N 31°39' E 121°15'0 0.0
2016-May-22 11:32N 31°39' E 121°15'0 0.0
2016-May-22 10:33N 31°39' E 121°15'0 0.0
2016-May-22 09:28N 31°39' E 121°15'0 0.0
2016-May-22 08:28N 31°39' E 121°15'0 0.0
2016-May-22 07:29N 31°39' E 121°15'0 0.0
2016-May-22 06:30N 31°39' E 121°15'0 0.1
2016-May-22 05:30N 31°39' E 121°15'0 0.1
2016-May-22 04:31N 31°39' E 121°15'0 0.1
2016-May-22 03:31N 31°39' E 121°15'0 0.0
2016-May-22 02:20N 31°39' E 121°15'0 0.0
2016-May-22 01:33N 31°39' E 121°15'0 0.0
2016-May-22 00:33N 31°39' E 121°15'0 0.0
2016-May-21 23:28N 31°39' E 121°15'0 0.0
2016-May-21 22:28N 31°39' E 121°15'0 0.0
2016-May-21 21:32N 31°39' E 121°15'0 0.0
2016-May-21 20:29N 31°39' E 121°15'0 0.1
2016-May-21 19:33N 31°39' E 121°15'0 0.1
2016-May-21 18:30N 31°39' E 121°15'0 0.0
2016-May-21 17:31N 31°39' E 121°15'0 0.0
2016-May-21 16:32N 31°39' E 121°15'0 0.0
2016-May-21 15:32N 31°39' E 121°15'0 0.1
2016-May-21 14:33N 31°39' E 121°15'0 0.1
2016-May-21 13:31N 31°39' E 121°15'0 0.0
2016-May-21 12:31N 31°39' E 121°15'0 0.0
2016-May-21 11:29N 31°39' E 121°15'0 0.0
2016-May-21 10:33N 31°39' E 121°15'0 0.0
2016-May-21 09:30N 31°39' E 121°15'0 0.1
2016-May-21 08:31N 31°39' E 121°15'4 3.8
2016-May-21 07:33N 31°41' E 121°11'2 1.5
2016-May-21 06:22N 31°41' E 121°09'0 0.0
2016-May-21 04:17N 31°41' E 121°09'0 0.0
2016-May-21 03:33N 31°41' E 121°09'0 0.0
2016-May-21 02:30N 31°41' E 121°09'0 0.0
2016-May-21 01:31N 31°41' E 121°09'0 0.0
2016-May-21 00:29N 31°41' E 121°09'0 0.0
2016-May-20 23:32N 31°41' E 121°09'0 0.0
2016-May-20 22:27N 31°41' E 121°09'0 0.0
2016-May-20 21:25N 31°41' E 121°09'0 0.0
2016-May-20 20:31N 31°41' E 121°09'0 0.0
2016-May-20 19:29N 31°41' E 121°09'0 0.0
2016-May-20 18:33N 31°41' E 121°09'0 0.0
2016-May-20 17:33N 31°41' E 121°09'0 0.0
2016-May-20 16:13N 31°41' E 121°09'0 0.0
2016-May-20 15:32N 31°41' E 121°09'0 0.0
2016-May-20 14:09N 31°41' E 121°09'0 0.0
2016-May-20 13:30N 31°41' E 121°09'0 0.0
2016-May-20 12:28N 31°41' E 121°09'0 0.0
2016-May-20 11:31N 31°41' E 121°09'1 0.6
2016-May-20 10:33N 31°41' E 121°10'6 5.5
2016-May-20 09:33N 31°39' E 121°15'0 0.3
2016-May-20 08:31N 31°39' E 121°16'0 0.0
2016-May-20 07:32N 31°39' E 121°16'0 0.1
2016-May-20 06:32N 31°39' E 121°16'0 0.1
2016-May-20 05:33N 31°39' E 121°16'0 0.0
2016-May-20 04:33N 31°39' E 121°16'0 0.0
2016-May-20 03:28N 31°39' E 121°16'0 0.0
2016-May-20 02:32N 31°39' E 121°16'0 0.1
2016-May-20 01:29N 31°39' E 121°16'0 0.2
2016-May-20 00:33N 31°39' E 121°16'0 0.0
2016-May-19 23:31N 31°39' E 121°16'0 0.0
2016-May-19 22:31N 31°39' E 121°16'0 0.0
2016-May-19 21:32N 31°39' E 121°16'0 0.0
2016-May-19 20:33N 31°39' E 121°16'0 0.0
2016-May-19 19:33N 31°39' E 121°16'0 0.1
2016-May-19 18:31N 31°39' E 121°16'0 0.1
2016-May-19 17:29N 31°39' E 121°16'0 0.1
2016-May-19 16:32N 31°39' E 121°16'0 0.0
2016-May-19 15:33N 31°39' E 121°16'0 0.0
2016-May-19 14:31N 31°39' E 121°16'0 0.1
2016-May-19 13:31N 31°39' E 121°16'0 0.2
2016-May-19 12:32N 31°39' E 121°16'0 0.0
2016-May-19 11:27N 31°39' E 121°16'0 0.0
2016-May-19 10:33N 31°39' E 121°16'0 0.0
2016-May-19 09:31N 31°39' E 121°16'0 0.0
2016-May-19 08:32N 31°39' E 121°16'0 0.0
2016-May-19 07:29N 31°39' E 121°16'0 0.2
2016-May-19 06:30N 31°39' E 121°16'0 0.1
2016-May-19 05:30N 31°39' E 121°16'0 0.0
2016-May-19 04:31N 31°39' E 121°16'0 0.0
2016-May-19 03:32N 31°39' E 121°16'0 0.0
2016-May-19 02:32N 31°39' E 121°16'0 0.0
2016-May-19 01:33N 31°39' E 121°16'0 0.1
2016-May-19 00:31N 31°39' E 121°16'0 0.0
2016-May-18 23:31N 31°39' E 121°16'0 0.1
2016-May-18 22:32N 31°39' E 121°16'0 0.0
2016-May-18 21:27N 31°39' E 121°16'0 0.1
2016-May-18 20:33N 31°39' E 121°16'0 0.0
2016-May-18 19:25N 31°39' E 121°16'0 0.0
2016-May-18 18:32N 31°39' E 121°16'0 0.1
2016-May-18 17:32N 31°39' E 121°16'0 0.1
2016-May-18 16:33N 31°39' E 121°16'0 0.3
2016-May-18 15:33N 31°39' E 121°15'9 8.7
2016-May-18 14:33N 31°32' E 121°22'10 9.8
2016-May-18 13:33N 31°25' E 121°31'1110.2
2016-May-18 12:30N 31°20' E 121°42'1110.3
2016-May-18 11:28N 31°12' E 121°50'10 9.7
2016-May-18 10:28N 31°06' E 121°59'38 3.1
2016-May-17 22:04N 31°01' E 122°43'4 6.8
2016-May-17 21:33N 31°05' E 122°42'13 8.9
2016-May-17 20:05N 31°12' E 122°55'7 8.6
2016-May-17 19:19N 31°16' E 123°01'25 8.3
2016-May-17 16:15N 31°32' E 123°24'  
Track history (hours):
 
Tides and Currents Weather Stations Pressure Air Temp Water Temp Dewpoint Dewpoint Depression Visibility Wind Speed Wind Dir Waves Ship Positions

Volga-4011

Last reported at 2016-May-24 14:26 UTC. Time now 2016-May-31 23:44 UTC.
Position N 31°06' E 121°59'.

Length 140 m; draft 3.6 m.

Type: Cargo ship. MMSI: 273358200.

Date/timePositionNaut miles runAvg speedWind from/ knotsBaromVisibWave heightAir tempDewpointWater temp
2016-May-24 14:26N 31°06' E 121°59'7 7.5
2016-May-24 13:31N 31°09' E 121°53'2311.4
2016-May-24 11:29N 31°24' E 121°32'910.1
2016-May-24 10:33N 31°31' E 121°24'9 8.6
2016-May-24 09:33N 31°36' E 121°17'8 8.2
2016-May-24 08:33N 31°42' E 121°09'0 0.3
2016-May-24 07:32N 31°42' E 121°09'0 0.0
2016-May-24 06:30N 31°42' E 121°09'0 0.0
2016-May-24 05:30N 31°42' E 121°09'0 0.0
2016-May-24 04:31N 31°42' E 121°09'0 0.0
2016-May-24 03:32N 31°42' E 121°09'0 0.0
2016-May-24 02:32N 31°42' E 121°09'0 0.0
2016-May-24 01:33N 31°42' E 121°09'0 0.0
2016-May-24 00:31N 31°42' E 121°09'0 0.0
2016-May-23 23:28N 31°42' E 121°09'0 0.0
2016-May-23 22:32N 31°42' E 121°09'0 0.1
2016-May-23 21:33N 31°42' E 121°09'0 0.0
2016-May-23 20:24N 31°42' E 121°09'0 0.0
2016-May-23 19:31N 31°42' E 121°09'0 0.0
2016-May-23 18:26N 31°42' E 121°09'0 0.0
2016-May-23 17:26N 31°42' E 121°09'0 0.0
2016-May-23 16:33N 31°42' E 121°09'0 0.0
2016-May-23 15:33N 31°42' E 121°09'0 0.0
2016-May-23 14:28N 31°42' E 121°09'0 0.0
2016-May-23 13:20N 31°42' E 121°09'0 0.1
2016-May-23 12:33N 31°42' E 121°09'0 0.1
2016-May-23 11:33N 31°42' E 121°09'5 4.8
2016-May-23 10:33N 31°39' E 121°14'1 1.0
2016-May-23 09:31N 31°39' E 121°15'0 0.1
2016-May-23 08:32N 31°39' E 121°15'0 0.1
2016-May-23 07:32N 31°39' E 121°15'0 0.2
2016-May-23 06:33N 31°39' E 121°15'0 0.1
2016-May-23 05:31N 31°39' E 121°15'0 0.1
2016-May-23 04:31N 31°39' E 121°15'0 0.1
2016-May-23 03:29N 31°39' E 121°15'0 0.0
2016-May-23 02:29N 31°39' E 121°15'0 0.0
2016-May-23 01:32N 31°39' E 121°15'0 0.0
2016-May-23 00:30N 31°39' E 121°15'0 0.0
2016-May-22 23:31N 31°39' E 121°15'0 0.0
2016-May-22 22:31N 31°39' E 121°15'0 0.0
2016-May-22 21:32N 31°39' E 121°15'0 0.1
2016-May-22 20:32N 31°39' E 121°15'0 0.1
2016-May-22 19:31N 31°39' E 121°15'0 0.1
2016-May-22 18:31N 31°39' E 121°15'0 0.0
2016-May-22 17:31N 31°39' E 121°15'0 0.0
2016-May-22 16:32N 31°39' E 121°15'0 0.1
2016-May-22 15:30N 31°39' E 121°15'0 0.2
2016-May-22 14:30N 31°39' E 121°15'0 0.0
2016-May-22 13:31N 31°39' E 121°15'0 0.0
2016-May-22 12:32N 31°39' E 121°15'0 0.0
2016-May-22 11:32N 31°39' E 121°15'0 0.0
2016-May-22 10:33N 31°39' E 121°15'0 0.0
2016-May-22 09:28N 31°39' E 121°15'0 0.0
2016-May-22 08:28N 31°39' E 121°15'0 0.0
2016-May-22 07:29N 31°39' E 121°15'0 0.0
2016-May-22 06:30N 31°39' E 121°15'0 0.1
2016-May-22 05:30N 31°39' E 121°15'0 0.1
2016-May-22 04:31N 31°39' E 121°15'0 0.1
2016-May-22 03:31N 31°39' E 121°15'0 0.0
2016-May-22 02:20N 31°39' E 121°15'0 0.0
2016-May-22 01:33N 31°39' E 121°15'0 0.0
2016-May-22 00:33N 31°39' E 121°15'0 0.0
2016-May-21 23:28N 31°39' E 121°15'0 0.0
2016-May-21 22:28N 31°39' E 121°15'0 0.0
2016-May-21 21:32N 31°39' E 121°15'0 0.0
2016-May-21 20:29N 31°39' E 121°15'0 0.1
2016-May-21 19:33N 31°39' E 121°15'0 0.1
2016-May-21 18:30N 31°39' E 121°15'0 0.0
2016-May-21 17:31N 31°39' E 121°15'0 0.0
2016-May-21 16:32N 31°39' E 121°15'0 0.0
2016-May-21 15:32N 31°39' E 121°15'0 0.1
2016-May-21 14:33N 31°39' E 121°15'0 0.1
2016-May-21 13:31N 31°39' E 121°15'0 0.0
2016-May-21 12:31N 31°39' E 121°15'0 0.0
2016-May-21 11:29N 31°39' E 121°15'0 0.0
2016-May-21 10:33N 31°39' E 121°15'0 0.0
2016-May-21 09:30N 31°39' E 121°15'0 0.1
2016-May-21 08:31N 31°39' E 121°15'4 3.8
2016-May-21 07:33N 31°41' E 121°11'2 1.5
2016-May-21 06:22N 31°41' E 121°09'0 0.0
2016-May-21 04:17N 31°41' E 121°09'0 0.0
2016-May-21 03:33N 31°41' E 121°09'0 0.0
2016-May-21 02:30N 31°41' E 121°09'0 0.0
2016-May-21 01:31N 31°41' E 121°09'0 0.0
2016-May-21 00:29N 31°41' E 121°09'0 0.0
2016-May-20 23:32N 31°41' E 121°09'0 0.0
2016-May-20 22:27N 31°41' E 121°09'0 0.0
2016-May-20 21:25N 31°41' E 121°09'0 0.0
2016-May-20 20:31N 31°41' E 121°09'0 0.0
2016-May-20 19:29N 31°41' E 121°09'0 0.0
2016-May-20 18:33N 31°41' E 121°09'0 0.0
2016-May-20 17:33N 31°41' E 121°09'0 0.0
2016-May-20 16:13N 31°41' E 121°09'0 0.0
2016-May-20 15:32N 31°41' E 121°09'0 0.0
2016-May-20 14:09N 31°41' E 121°09'0 0.0
2016-May-20 13:30N 31°41' E 121°09'0 0.0
2016-May-20 12:28N 31°41' E 121°09'0 0.0
2016-May-20 11:31N 31°41' E 121°09'1 0.6
2016-May-20 10:33N 31°41' E 121°10'6 5.5
2016-May-20 09:33N 31°39' E 121°15'0 0.3
2016-May-20 08:31N 31°39' E 121°16'0 0.0
2016-May-20 07:32N 31°39' E 121°16'0 0.1
2016-May-20 06:32N 31°39' E 121°16'0 0.1
2016-May-20 05:33N 31°39' E 121°16'0 0.0
2016-May-20 04:33N 31°39' E 121°16'0 0.0
2016-May-20 03:28N 31°39' E 121°16'0 0.0
2016-May-20 02:32N 31°39' E 121°16'0 0.1
2016-May-20 01:29N 31°39' E 121°16'0 0.2
2016-May-20 00:33N 31°39' E 121°16'0 0.0
2016-May-19 23:31N 31°39' E 121°16'0 0.0
2016-May-19 22:31N 31°39' E 121°16'0 0.0
2016-May-19 21:32N 31°39' E 121°16'0 0.0
2016-May-19 20:33N 31°39' E 121°16'0 0.0
2016-May-19 19:33N 31°39' E 121°16'0 0.1
2016-May-19 18:31N 31°39' E 121°16'0 0.1
2016-May-19 17:29N 31°39' E 121°16'0 0.1
2016-May-19 16:32N 31°39' E 121°16'0 0.0
2016-May-19 15:33N 31°39' E 121°16'0 0.0
2016-May-19 14:31N 31°39' E 121°16'0 0.1
2016-May-19 13:31N 31°39' E 121°16'0 0.2
2016-May-19 12:32N 31°39' E 121°16'0 0.0
2016-May-19 11:27N 31°39' E 121°16'0 0.0
2016-May-19 10:33N 31°39' E 121°16'0 0.0
2016-May-19 09:31N 31°39' E 121°16'0 0.0
2016-May-19 08:32N 31°39' E 121°16'0 0.0
2016-May-19 07:29N 31°39' E 121°16'0 0.2
2016-May-19 06:30N 31°39' E 121°16'0 0.1
2016-May-19 05:30N 31°39' E 121°16'0 0.0
2016-May-19 04:31N 31°39' E 121°16'0 0.0
2016-May-19 03:32N 31°39' E 121°16'0 0.0
2016-May-19 02:32N 31°39' E 121°16'0 0.0
2016-May-19 01:33N 31°39' E 121°16'0 0.1
2016-May-19 00:31N 31°39' E 121°16'0 0.0
2016-May-18 23:31N 31°39' E 121°16'0 0.1
2016-May-18 22:32N 31°39' E 121°16'0 0.0
2016-May-18 21:27N 31°39' E 121°16'0 0.1
2016-May-18 20:33N 31°39' E 121°16'0 0.0
2016-May-18 19:25N 31°39' E 121°16'0 0.0
2016-May-18 18:32N 31°39' E 121°16'0 0.1
2016-May-18 17:32N 31°39' E 121°16'0 0.1
2016-May-18 16:33N 31°39' E 121°16'0 0.3
2016-May-18 15:33N 31°39' E 121°15'9 8.7
2016-May-18 14:33N 31°32' E 121°22'10 9.8
2016-May-18 13:33N 31°25' E 121°31'1110.2
2016-May-18 12:30N 31°20' E 121°42'1110.3
2016-May-18 11:28N 31°12' E 121°50'10 9.7
2016-May-18 10:28N 31°06' E 121°59'38 3.1
2016-May-17 22:04N 31°01' E 122°43'4 6.8
2016-May-17 21:33N 31°05' E 122°42'13 8.9
2016-May-17 20:05N 31°12' E 122°55'7 8.6
2016-May-17 19:19N 31°16' E 123°01'25 8.3
2016-May-17 16:15N 31°32' E 123°24'  

Dump ship's entire track history